sensor_id;sensor_type;location;lat;lon;timestamp;noise_LAeq;noise_LA_min;noise_LA_max;noise_LA01;noise_LA95
85141;Laerm;75501;52.586;13.284;2024-03-02T00:00:19;57.02;53.33;68.38;;
85141;Laerm;75501;52.586;13.284;2024-03-02T00:03:07;56.54;53.02;70.28;;
85141;Laerm;75501;52.586;13.284;2024-03-02T00:05:59;58.72;54.06;74.97;;
85141;Laerm;75501;52.586;13.284;2024-03-02T00:09:06;57.98;53.52;72.81;;
85141;Laerm;75501;52.586;13.284;2024-03-02T00:11:46;57.62;53.60;71.79;;
85141;Laerm;75501;52.586;13.284;2024-03-02T00:14:22;57.92;53.90;70.64;;
85141;Laerm;75501;52.586;13.284;2024-03-02T00:17:24;57.96;53.66;74.28;;
85141;Laerm;75501;52.586;13.284;2024-03-02T00:20:13;58.21;53.92;71.57;;
85141;Laerm;75501;52.586;13.284;2024-03-02T00:23:14;58.48;54.46;72.39;;
85141;Laerm;75501;52.586;13.284;2024-03-02T00:26:21;58.68;53.56;74.13;;
85141;Laerm;75501;52.586;13.284;2024-03-02T00:29:37;58.68;53.80;75.17;;
85141;Laerm;75501;52.586;13.284;2024-03-02T00:32:32;58.25;53.59;73.19;;
85141;Laerm;75501;52.586;13.284;2024-03-02T00:35:30;59.19;55.04;72.83;;
85141;Laerm;75501;52.586;13.284;2024-03-02T00:38:16;59.40;55.33;72.27;;
85141;Laerm;75501;52.586;13.284;2024-03-02T00:41:30;59.85;55.60;73.97;;
85141;Laerm;75501;52.586;13.284;2024-03-02T00:44:58;58.92;54.14;74.31;;
85141;Laerm;75501;52.586;13.284;2024-03-02T00:47:50;58.62;53.86;73.62;;
85141;Laerm;75501;52.586;13.284;2024-03-02T00:50:57;56.39;52.26;67.10;;
85141;Laerm;75501;52.586;13.284;2024-03-02T00:53:46;56.48;52.69;67.35;;
85141;Laerm;75501;52.586;13.284;2024-03-02T00:56:34;56.14;52.53;68.49;;
85141;Laerm;75501;52.586;13.284;2024-03-02T00:59:42;55.90;52.53;67.44;;
85141;Laerm;75501;52.586;13.284;2024-03-02T01:02:59;56.62;52.61;67.53;;
85141;Laerm;75501;52.586;13.284;2024-03-02T01:05:29;56.12;52.68;69.36;;
85141;Laerm;75501;52.586;13.284;2024-03-02T01:08:52;56.77;52.94;68.61;;
85141;Laerm;75501;52.586;13.284;2024-03-02T01:12:26;56.40;53.24;69.98;;
85141;Laerm;75501;52.586;13.284;2024-03-02T01:15:28;56.87;52.97;72.70;;
85141;Laerm;75501;52.586;13.284;2024-03-02T01:18:34;56.55;52.81;70.62;;
85141;Laerm;75501;52.586;13.284;2024-03-02T01:21:43;57.35;53.21;69.55;;
85141;Laerm;75501;52.586;13.284;2024-03-02T01:25:13;59.80;55.18;75.93;;
85141;Laerm;75501;52.586;13.284;2024-03-02T01:28:50;57.15;53.28;69.57;;
85141;Laerm;75501;52.586;13.284;2024-03-02T01:31:49;57.72;53.72;73.10;;
85141;Laerm;75501;52.586;13.284;2024-03-02T01:35:10;56.65;53.62;70.24;;
85141;Laerm;75501;52.586;13.284;2024-03-02T01:38:31;57.24;53.76;72.03;;
85141;Laerm;75501;52.586;13.284;2024-03-02T01:41:27;59.45;54.83;72.86;;
85141;Laerm;75501;52.586;13.284;2024-03-02T01:44:21;58.36;54.74;71.76;;
85141;Laerm;75501;52.586;13.284;2024-03-02T01:47:29;63.02;55.06;75.25;;
85141;Laerm;75501;52.586;13.284;2024-03-02T01:50:48;58.97;54.85;71.59;;
85141;Laerm;75501;52.586;13.284;2024-03-02T01:53:54;59.26;54.66;73.84;;
85141;Laerm;75501;52.586;13.284;2024-03-02T01:57:03;59.01;54.83;73.38;;
85141;Laerm;75501;52.586;13.284;2024-03-02T02:00:02;58.00;54.62;72.05;;
85141;Laerm;75501;52.586;13.284;2024-03-02T02:02:51;58.37;54.47;71.85;;
85141;Laerm;75501;52.586;13.284;2024-03-02T02:05:34;58.18;54.70;72.77;;
85141;Laerm;75501;52.586;13.284;2024-03-02T02:08:19;58.06;54.57;72.75;;
85141;Laerm;75501;52.586;13.284;2024-03-02T02:11:12;59.51;54.97;73.28;;
85141;Laerm;75501;52.586;13.284;2024-03-02T02:14:13;58.62;55.16;72.23;;
85141;Laerm;75501;52.586;13.284;2024-03-02T02:17:02;58.74;54.49;73.05;;
85141;Laerm;75501;52.586;13.284;2024-03-02T02:19:52;60.71;56.74;74.50;;
85141;Laerm;75501;52.586;13.284;2024-03-02T02:23:13;60.37;56.07;74.78;;
85141;Laerm;75501;52.586;13.284;2024-03-02T02:26:05;58.81;55.13;72.17;;
85141;Laerm;75501;52.586;13.284;2024-03-02T02:29:25;59.21;55.27;73.07;;
85141;Laerm;75501;52.586;13.284;2024-03-02T02:31:58;59.37;55.63;72.57;;
85141;Laerm;75501;52.586;13.284;2024-03-02T02:35:05;58.52;55.05;74.02;;
85141;Laerm;75501;52.586;13.284;2024-03-02T02:38:06;62.43;55.50;75.38;;
85141;Laerm;75501;52.586;13.284;2024-03-02T02:41:08;61.46;56.04;73.91;;
85141;Laerm;75501;52.586;13.284;2024-03-02T02:44:00;63.36;56.71;76.52;;
85141;Laerm;75501;52.586;13.284;2024-03-02T02:46:36;62.03;56.87;76.59;;
85141;Laerm;75501;52.586;13.284;2024-03-02T02:49:05;62.64;58.04;75.53;;
85141;Laerm;75501;52.586;13.284;2024-03-02T02:51:33;63.72;58.19;75.41;;
85141;Laerm;75501;52.586;13.284;2024-03-02T02:54:01;62.02;57.51;74.70;;
85141;Laerm;75501;52.586;13.284;2024-03-02T02:56:31;61.48;56.85;75.06;;
85141;Laerm;75501;52.586;13.284;2024-03-02T02:58:59;62.67;57.39;76.64;;
85141;Laerm;75501;52.586;13.284;2024-03-02T03:01:27;61.99;56.79;74.72;;
85141;Laerm;75501;52.586;13.284;2024-03-02T03:03:55;63.20;58.41;76.42;;
85141;Laerm;75501;52.586;13.284;2024-03-02T03:06:23;63.55;58.96;76.13;;
85141;Laerm;75501;52.586;13.284;2024-03-02T03:08:51;64.20;59.77;76.15;;
85141;Laerm;75501;52.586;13.284;2024-03-02T03:11:19;63.54;59.61;75.82;;
85141;Laerm;75501;52.586;13.284;2024-03-02T03:13:50;63.03;57.60;76.10;;
85141;Laerm;75501;52.586;13.284;2024-03-02T03:16:19;63.52;59.12;76.78;;
85141;Laerm;75501;52.586;13.284;2024-03-02T03:18:48;64.37;57.78;77.17;;
85141;Laerm;75501;52.586;13.284;2024-03-02T03:21:18;63.49;58.87;76.40;;
85141;Laerm;75501;52.586;13.284;2024-03-02T03:23:46;60.98;56.03;73.57;;
85141;Laerm;75501;52.586;13.284;2024-03-02T03:26:14;61.12;56.53;74.08;;
85141;Laerm;75501;52.586;13.284;2024-03-02T03:28:42;59.88;55.62;73.23;;
85141;Laerm;75501;52.586;13.284;2024-03-02T03:31:12;60.17;55.82;76.40;;
85141;Laerm;75501;52.586;13.284;2024-03-02T03:33:40;58.90;55.02;73.95;;
85141;Laerm;75501;52.586;13.284;2024-03-02T03:36:08;57.95;54.54;72.96;;
85141;Laerm;75501;52.586;13.284;2024-03-02T03:38:36;59.52;55.87;74.24;;
85141;Laerm;75501;52.586;13.284;2024-03-02T03:41:04;58.83;54.97;72.70;;
85141;Laerm;75501;52.586;13.284;2024-03-02T03:43:32;58.50;55.02;73.75;;
85141;Laerm;75501;52.586;13.284;2024-03-02T03:46:00;60.37;55.53;74.17;;
85141;Laerm;75501;52.586;13.284;2024-03-02T03:48:30;60.00;55.75;74.38;;
85141;Laerm;75501;52.586;13.284;2024-03-02T03:50:58;59.89;56.02;74.39;;
85141;Laerm;75501;52.586;13.284;2024-03-02T03:53:26;61.40;56.79;74.83;;
85141;Laerm;75501;52.586;13.284;2024-03-02T03:55:55;59.46;55.82;74.20;;
85141;Laerm;75501;52.586;13.284;2024-03-02T03:58:23;59.58;55.61;73.01;;
85141;Laerm;75501;52.586;13.284;2024-03-02T04:00:51;58.79;55.45;73.08;;
85141;Laerm;75501;52.586;13.284;2024-03-02T04:03:19;58.71;55.49;73.60;;
85141;Laerm;75501;52.586;13.284;2024-03-02T04:05:48;60.25;55.60;73.16;;
85141;Laerm;75501;52.586;13.284;2024-03-02T04:08:17;59.62;55.97;74.83;;
85141;Laerm;75501;52.586;13.284;2024-03-02T04:10:44;59.29;55.73;73.56;;
85141;Laerm;75501;52.586;13.284;2024-03-02T04:13:13;61.07;57.02;76.18;;
85141;Laerm;75501;52.586;13.284;2024-03-02T04:15:41;60.13;56.09;74.50;;
85141;Laerm;75501;52.586;13.284;2024-03-02T04:18:09;60.88;55.80;73.24;;
85141;Laerm;75501;52.586;13.284;2024-03-02T04:20:38;60.29;55.79;74.63;;
85141;Laerm;75501;52.586;13.284;2024-03-02T04:23:07;60.16;56.42;73.73;;
85141;Laerm;75501;52.586;13.284;2024-03-02T04:25:35;59.95;56.25;74.34;;
85141;Laerm;75501;52.586;13.284;2024-03-02T04:28:04;59.87;55.98;73.38;;
85141;Laerm;75501;52.586;13.284;2024-03-02T04:30:32;59.55;55.86;74.08;;
85141;Laerm;75501;52.586;13.284;2024-03-02T04:33:00;59.72;56.19;73.27;;
85141;Laerm;75501;52.586;13.284;2024-03-02T04:35:29;60.42;55.88;76.29;;
85141;Laerm;75501;52.586;13.284;2024-03-02T04:37:57;61.31;55.79;75.78;;
85141;Laerm;75501;52.586;13.284;2024-03-02T04:40:27;61.14;56.13;75.00;;
85141;Laerm;75501;52.586;13.284;2024-03-02T04:42:55;60.37;55.97;75.80;;
85141;Laerm;75501;52.586;13.284;2024-03-02T04:45:23;59.96;55.83;74.05;;
85141;Laerm;75501;52.586;13.284;2024-03-02T04:47:51;59.29;55.77;73.47;;
85141;Laerm;75501;52.586;13.284;2024-03-02T04:50:19;59.26;55.55;74.26;;
85141;Laerm;75501;52.586;13.284;2024-03-02T04:52:48;59.64;56.06;73.41;;
85141;Laerm;75501;52.586;13.284;2024-03-02T04:55:16;59.11;55.55;72.77;;
85141;Laerm;75501;52.586;13.284;2024-03-02T04:58:18;59.14;55.53;73.66;;
85141;Laerm;75501;52.586;13.284;2024-03-02T05:00:47;58.84;54.70;75.52;;
85141;Laerm;75501;52.586;13.284;2024-03-02T05:03:15;59.21;55.59;72.91;;
85141;Laerm;75501;52.586;13.284;2024-03-02T05:05:43;60.95;55.56;76.31;;
85141;Laerm;75501;52.586;13.284;2024-03-02T05:08:12;61.85;57.08;75.11;;
85141;Laerm;75501;52.586;13.284;2024-03-02T05:10:40;61.09;56.67;73.64;;
85141;Laerm;75501;52.586;13.284;2024-03-02T05:13:08;59.76;55.87;74.17;;
85141;Laerm;75501;52.586;13.284;2024-03-02T05:15:38;59.31;55.70;75.61;;
85141;Laerm;75501;52.586;13.284;2024-03-02T05:18:07;59.42;55.52;72.45;;
85141;Laerm;75501;52.586;13.284;2024-03-02T05:20:35;59.01;55.69;72.80;;
85141;Laerm;75501;52.586;13.284;2024-03-02T05:23:03;59.83;55.94;73.20;;
85141;Laerm;75501;52.586;13.284;2024-03-02T05:25:31;60.06;56.30;74.23;;
85141;Laerm;75501;52.586;13.284;2024-03-02T05:28:02;59.61;56.01;74.23;;
85141;Laerm;75501;52.586;13.284;2024-03-02T05:30:30;61.30;56.28;74.03;;
85141;Laerm;75501;52.586;13.284;2024-03-02T05:33:00;60.13;56.02;73.66;;
85141;Laerm;75501;52.586;13.284;2024-03-02T05:35:28;59.43;55.54;68.15;;
85141;Laerm;75501;52.586;13.284;2024-03-02T05:37:56;59.76;55.85;74.19;;
85141;Laerm;75501;52.586;13.284;2024-03-02T05:40:25;61.48;56.86;76.32;;
85141;Laerm;75501;52.586;13.284;2024-03-02T05:42:53;60.23;55.81;73.25;;
85141;Laerm;75501;52.586;13.284;2024-03-02T05:45:22;58.35;55.23;72.81;;
85141;Laerm;75501;52.586;13.284;2024-03-02T05:47:50;59.23;55.66;73.57;;
85141;Laerm;75501;52.586;13.284;2024-03-02T05:50:19;58.99;55.55;73.30;;
85141;Laerm;75501;52.586;13.284;2024-03-02T05:52:47;59.04;55.26;74.70;;
85141;Laerm;75501;52.586;13.284;2024-03-02T05:55:16;60.56;55.99;74.02;;
85141;Laerm;75501;52.586;13.284;2024-03-02T05:57:44;61.95;55.97;74.88;;
85141;Laerm;75501;52.586;13.284;2024-03-02T06:00:25;61.80;56.30;74.07;;
85141;Laerm;75501;52.586;13.284;2024-03-02T06:02:54;61.07;57.30;74.90;;
85141;Laerm;75501;52.586;13.284;2024-03-02T06:05:24;60.90;55.85;76.34;;
85141;Laerm;75501;52.586;13.284;2024-03-02T06:07:52;61.15;56.30;77.51;;
85141;Laerm;75501;52.586;13.284;2024-03-02T06:10:20;62.22;56.90;74.85;;
85141;Laerm;75501;52.586;13.284;2024-03-02T06:12:48;60.79;56.64;74.23;;
85141;Laerm;75501;52.586;13.284;2024-03-02T06:15:17;59.81;56.02;73.52;;
85141;Laerm;75501;52.586;13.284;2024-03-02T06:17:45;61.49;56.74;75.52;;
85141;Laerm;75501;52.586;13.284;2024-03-02T06:20:14;61.09;55.95;73.02;;
85141;Laerm;75501;52.586;13.284;2024-03-02T06:22:43;59.43;55.86;73.73;;
85141;Laerm;75501;52.586;13.284;2024-03-02T06:25:11;59.66;55.73;75.16;;
85141;Laerm;75501;52.586;13.284;2024-03-02T06:27:40;59.75;56.05;74.64;;
85141;Laerm;75501;52.586;13.284;2024-03-02T06:30:09;60.33;55.81;73.94;;
85141;Laerm;75501;52.586;13.284;2024-03-02T06:32:38;60.85;56.90;75.08;;
85141;Laerm;75501;52.586;13.284;2024-03-02T06:35:07;59.92;55.87;73.88;;
85141;Laerm;75501;52.586;13.284;2024-03-02T06:37:38;59.43;55.32;72.55;;
85141;Laerm;75501;52.586;13.284;2024-03-02T06:40:09;58.88;55.45;74.41;;
85141;Laerm;75501;52.586;13.284;2024-03-02T06:42:37;60.61;55.77;76.29;;
85141;Laerm;75501;52.586;13.284;2024-03-02T06:45:06;60.79;56.40;74.15;;
85141;Laerm;75501;52.586;13.284;2024-03-02T06:47:34;61.43;55.92;76.48;;
85141;Laerm;75501;52.586;13.284;2024-03-02T06:50:02;59.79;55.21;73.28;;
85141;Laerm;75501;52.586;13.284;2024-03-02T06:52:31;58.33;54.53;73.41;;
85141;Laerm;75501;52.586;13.284;2024-03-02T06:54:59;58.75;53.77;74.52;;
85141;Laerm;75501;52.586;13.284;2024-03-02T06:57:30;59.14;54.64;74.10;;
85141;Laerm;75501;52.586;13.284;2024-03-02T07:00:00;58.61;54.88;72.50;;
85141;Laerm;75501;52.586;13.284;2024-03-02T07:02:32;58.62;54.47;73.37;;
85141;Laerm;75501;52.586;13.284;2024-03-02T07:18:19;58.33;53.97;71.72;;
85141;Laerm;75501;52.586;13.284;2024-03-02T07:20:57;58.44;54.00;73.41;;
85141;Laerm;75501;52.586;13.284;2024-03-02T07:23:37;58.28;54.46;73.93;;
85141;Laerm;75501;52.586;13.284;2024-03-02T07:26:06;59.02;54.49;75.64;;
85141;Laerm;75501;52.586;13.284;2024-03-02T07:28:39;58.32;54.04;71.40;;
85141;Laerm;75501;52.586;13.284;2024-03-02T07:56:51;58.02;53.35;68.71;;
85141;Laerm;75501;52.586;13.284;2024-03-02T07:59:39;57.86;53.35;68.86;;
85141;Laerm;75501;52.586;13.284;2024-03-02T08:02:08;56.76;53.06;69.82;;
85141;Laerm;75501;52.586;13.284;2024-03-02T08:04:40;57.52;53.15;72.38;;
85141;Laerm;75501;52.586;13.284;2024-03-02T08:07:09;57.65;53.29;70.38;;
85141;Laerm;75501;52.586;13.284;2024-03-02T08:09:38;58.13;53.66;73.08;;
85141;Laerm;75501;52.586;13.284;2024-03-02T08:12:08;57.57;53.08;72.96;;
85141;Laerm;75501;52.586;13.284;2024-03-02T08:14:37;57.06;53.02;70.18;;
85141;Laerm;75501;52.586;13.284;2024-03-02T08:17:05;57.06;52.58;69.40;;
85141;Laerm;75501;52.586;13.284;2024-03-02T08:19:37;56.73;52.94;70.21;;
85141;Laerm;75501;52.586;13.284;2024-03-02T08:22:06;56.02;52.79;71.83;;
85141;Laerm;75501;52.586;13.284;2024-03-02T08:24:35;57.04;52.95;72.21;;
85141;Laerm;75501;52.586;13.284;2024-03-02T08:27:04;57.24;52.72;73.18;;
85141;Laerm;75501;52.586;13.284;2024-03-02T08:29:34;57.70;53.02;72.20;;
85141;Laerm;75501;52.586;13.284;2024-03-02T08:32:04;57.41;52.93;67.30;;
85141;Laerm;75501;52.586;13.284;2024-03-02T08:34:33;56.65;53.16;67.84;;
85141;Laerm;75501;52.586;13.284;2024-03-02T08:37:03;57.22;52.29;70.71;;
85141;Laerm;75501;52.586;13.284;2024-03-02T08:39:31;55.30;52.39;59.35;;
85141;Laerm;75501;52.586;13.284;2024-03-02T08:42:00;55.52;52.53;66.36;;
85141;Laerm;75501;52.586;13.284;2024-03-02T08:44:29;55.15;52.27;71.96;;
85141;Laerm;75501;52.586;13.284;2024-03-02T08:47:13;55.12;52.42;71.33;;
85141;Laerm;75501;52.586;13.284;2024-03-02T08:49:49;55.36;52.55;67.85;;
85141;Laerm;75501;52.586;13.284;2024-03-02T08:52:34;55.04;52.26;64.44;;
85141;Laerm;75501;52.586;13.284;2024-03-02T08:55:14;54.80;52.27;70.59;;
85141;Laerm;75501;52.586;13.284;2024-03-02T08:58:00;54.49;52.23;63.46;;
85141;Laerm;75501;52.586;13.284;2024-03-02T09:00:43;54.50;52.18;58.78;;
85141;Laerm;75501;52.586;13.284;2024-03-02T09:03:21;55.48;52.29;68.47;;
85141;Laerm;75501;52.586;13.284;2024-03-02T09:06:09;54.79;52.02;65.30;;
85141;Laerm;75501;52.586;13.284;2024-03-02T09:09:13;55.13;52.42;64.76;;
85141;Laerm;75501;52.586;13.284;2024-03-02T09:11:47;54.99;52.10;64.46;;
85141;Laerm;75501;52.586;13.284;2024-03-02T09:14:35;54.37;52.01;70.00;;
85141;Laerm;75501;52.586;13.284;2024-03-02T09:17:31;55.11;52.50;64.80;;
85141;Laerm;75501;52.586;13.284;2024-03-02T09:20:39;54.24;52.11;66.36;;
85141;Laerm;75501;52.586;13.284;2024-03-02T09:23:28;54.92;52.19;70.82;;
85141;Laerm;75501;52.586;13.284;2024-03-02T09:26:14;54.74;52.19;62.43;;
85141;Laerm;75501;52.586;13.284;2024-03-02T09:29:25;54.14;52.02;70.61;;
85141;Laerm;75501;52.586;13.284;2024-03-02T09:32:07;54.65;52.23;61.02;;
85141;Laerm;75501;52.586;13.284;2024-03-02T09:34:42;54.62;52.16;61.66;;
85141;Laerm;75501;52.586;13.284;2024-03-02T09:37:12;54.63;52.25;69.99;;
85141;Laerm;75501;52.586;13.284;2024-03-02T09:39:43;54.16;52.14;70.67;;
85141;Laerm;75501;52.586;13.284;2024-03-02T09:42:13;54.31;52.17;62.10;;
85141;Laerm;75501;52.586;13.284;2024-03-02T09:44:42;54.43;52.22;70.04;;
85141;Laerm;75501;52.586;13.284;2024-03-02T09:47:11;55.41;52.06;71.56;;
85141;Laerm;75501;52.586;13.284;2024-03-02T09:49:40;55.85;52.68;64.12;;
85141;Laerm;75501;52.586;13.284;2024-03-02T09:52:10;55.43;52.55;70.61;;
85141;Laerm;75501;52.586;13.284;2024-03-02T09:54:40;54.65;52.22;65.49;;
85141;Laerm;75501;52.586;13.284;2024-03-02T09:57:08;54.83;52.26;64.92;;
85141;Laerm;75501;52.586;13.284;2024-03-02T09:59:37;54.65;52.38;70.46;;
85141;Laerm;75501;52.586;13.284;2024-03-02T10:02:06;54.77;52.24;71.23;;
85141;Laerm;75501;52.586;13.284;2024-03-02T10:04:34;54.29;51.96;70.55;;
85141;Laerm;75501;52.586;13.284;2024-03-02T10:07:12;54.14;52.06;70.42;;
85141;Laerm;75501;52.586;13.284;2024-03-02T10:09:43;54.48;52.18;61.86;;
85141;Laerm;75501;52.586;13.284;2024-03-02T10:12:14;54.37;51.79;58.67;;
85141;Laerm;75501;52.586;13.284;2024-03-02T10:14:43;54.16;52.17;64.17;;
85141;Laerm;75501;52.586;13.284;2024-03-02T10:17:13;54.18;52.16;69.34;;
85141;Laerm;75501;52.586;13.284;2024-03-02T10:19:42;54.01;52.32;59.91;;
85141;Laerm;75501;52.586;13.284;2024-03-02T10:22:10;54.05;52.50;58.43;;
85141;Laerm;75501;52.586;13.284;2024-03-02T10:24:42;54.41;52.18;59.18;;
85141;Laerm;75501;52.586;13.284;2024-03-02T10:27:17;54.29;52.42;61.69;;
85141;Laerm;75501;52.586;13.284;2024-03-02T10:29:47;54.26;52.46;61.01;;
85141;Laerm;75501;52.586;13.284;2024-03-02T10:32:16;54.27;52.50;68.79;;
85141;Laerm;75501;52.586;13.284;2024-03-02T10:34:46;54.36;52.49;70.01;;
85141;Laerm;75501;52.586;13.284;2024-03-02T10:37:15;54.49;52.67;58.67;;
85141;Laerm;75501;52.586;13.284;2024-03-02T10:39:46;54.70;53.10;58.10;;
85141;Laerm;75501;52.586;13.284;2024-03-02T10:42:17;54.99;53.20;57.72;;
85141;Laerm;75501;52.586;13.284;2024-03-02T10:44:48;54.72;52.89;58.49;;
85141;Laerm;75501;52.586;13.284;2024-03-02T10:47:19;55.28;53.18;61.34;;
85141;Laerm;75501;52.586;13.284;2024-03-02T10:49:52;55.13;53.40;59.60;;
85141;Laerm;75501;52.586;13.284;2024-03-02T10:52:21;55.49;53.35;61.90;;
85141;Laerm;75501;52.586;13.284;2024-03-02T10:54:52;55.22;53.42;69.44;;
85141;Laerm;75501;52.586;13.284;2024-03-02T10:57:21;55.53;53.78;58.96;;
85141;Laerm;75501;52.586;13.284;2024-03-02T10:59:56;55.44;53.72;66.28;;
85141;Laerm;75501;52.586;13.284;2024-03-02T11:02:27;54.95;53.40;58.01;;
85141;Laerm;75501;52.586;13.284;2024-03-02T11:05:00;55.17;53.32;58.18;;
85141;Laerm;75501;52.586;13.284;2024-03-02T11:07:37;55.35;53.32;58.75;;
85141;Laerm;75501;52.586;13.284;2024-03-02T11:10:09;55.61;53.37;60.60;;
85141;Laerm;75501;52.586;13.284;2024-03-02T11:12:46;55.31;53.23;58.33;;
85141;Laerm;75501;52.586;13.284;2024-03-02T11:15:18;55.67;53.70;59.58;;
85141;Laerm;75501;52.586;13.284;2024-03-02T11:17:48;55.35;53.51;60.30;;
85141;Laerm;75501;52.586;13.284;2024-03-02T11:20:17;54.90;53.29;58.51;;
85141;Laerm;75501;52.586;13.284;2024-03-02T11:22:46;55.23;53.38;69.62;;
85141;Laerm;75501;52.586;13.284;2024-03-02T11:25:26;55.38;53.56;69.27;;
85141;Laerm;75501;52.586;13.284;2024-03-02T11:28:06;55.15;53.54;58.57;;
85141;Laerm;75501;52.586;13.284;2024-03-02T11:30:50;55.20;53.49;58.83;;
85141;Laerm;75501;52.586;13.284;2024-03-02T11:33:25;55.18;53.20;65.79;;
85141;Laerm;75501;52.586;13.284;2024-03-02T11:35:57;54.98;53.16;68.91;;
85141;Laerm;75501;52.586;13.284;2024-03-02T11:38:34;54.89;52.98;69.49;;
85141;Laerm;75501;52.586;13.284;2024-03-02T11:41:06;55.36;53.02;64.45;;
85141;Laerm;75501;52.586;13.284;2024-03-02T11:43:38;54.55;52.65;58.22;;
85141;Laerm;75501;52.586;13.284;2024-03-02T11:46:07;54.45;52.31;60.93;;
85141;Laerm;75501;52.586;13.284;2024-03-02T11:48:39;54.27;52.46;69.36;;
85141;Laerm;75501;52.586;13.284;2024-03-02T11:51:07;54.03;52.39;56.39;;
85141;Laerm;75501;52.586;13.284;2024-03-02T11:53:38;54.26;51.83;60.22;;
85141;Laerm;75501;52.586;13.284;2024-03-02T11:56:09;53.88;51.88;58.86;;
85141;Laerm;75501;52.586;13.284;2024-03-02T11:58:40;54.16;51.48;67.14;;
85141;Laerm;75501;52.586;13.284;2024-03-02T12:01:10;53.45;51.82;68.51;;
85141;Laerm;75501;52.586;13.284;2024-03-02T12:03:40;53.68;51.73;58.43;;
85141;Laerm;75501;52.586;13.284;2024-03-02T12:06:09;54.03;51.84;58.38;;
85141;Laerm;75501;52.586;13.284;2024-03-02T12:08:38;53.84;51.63;63.11;;
85141;Laerm;75501;52.586;13.284;2024-03-02T12:11:13;54.11;51.64;57.82;;
85141;Laerm;75501;52.586;13.284;2024-03-02T12:13:52;53.48;51.62;58.00;;
85141;Laerm;75501;52.586;13.284;2024-03-02T12:16:24;53.54;51.41;68.04;;
85141;Laerm;75501;52.586;13.284;2024-03-02T12:18:52;54.03;51.47;68.46;;
85141;Laerm;75501;52.586;13.284;2024-03-02T12:21:20;53.77;51.56;57.02;;
85141;Laerm;75501;52.586;13.284;2024-03-02T12:23:50;53.54;51.33;57.47;;
85141;Laerm;75501;52.586;13.284;2024-03-02T12:26:19;53.61;51.37;67.93;;
85141;Laerm;75501;52.586;13.284;2024-03-02T12:28:48;53.52;51.15;57.76;;
85141;Laerm;75501;52.586;13.284;2024-03-02T12:31:16;53.15;51.15;60.90;;
85141;Laerm;75501;52.586;13.284;2024-03-02T12:33:44;53.00;51.20;60.78;;
85141;Laerm;75501;52.586;13.284;2024-03-02T12:36:14;53.24;51.30;68.85;;
85141;Laerm;75501;52.586;13.284;2024-03-02T12:38:43;53.44;50.99;57.63;;
85141;Laerm;75501;52.586;13.284;2024-03-02T12:41:15;53.53;51.49;61.44;;
85141;Laerm;75501;52.586;13.284;2024-03-02T12:43:45;53.39;51.33;57.40;;
85141;Laerm;75501;52.586;13.284;2024-03-02T12:46:14;53.20;50.80;56.16;;
85141;Laerm;75501;52.586;13.284;2024-03-02T12:48:42;52.83;50.89;68.06;;
85141;Laerm;75501;52.586;13.284;2024-03-02T12:51:11;52.83;50.90;57.78;;
85141;Laerm;75501;52.586;13.284;2024-03-02T12:53:41;53.33;51.01;59.12;;
85141;Laerm;75501;52.586;13.284;2024-03-02T12:56:10;52.29;50.32;59.71;;
85141;Laerm;75501;52.586;13.284;2024-03-02T12:58:40;52.83;50.83;68.58;;
85141;Laerm;75501;52.586;13.284;2024-03-02T13:01:11;53.14;51.05;56.81;;
85141;Laerm;75501;52.586;13.284;2024-03-02T13:03:42;53.13;51.14;59.18;;
85141;Laerm;75501;52.586;13.284;2024-03-02T13:06:11;53.36;51.50;57.20;;
85141;Laerm;75501;52.586;13.284;2024-03-02T13:08:40;53.74;51.76;69.39;;
85141;Laerm;75501;52.586;13.284;2024-03-02T13:11:08;53.80;51.56;69.55;;
85141;Laerm;75501;52.586;13.284;2024-03-02T13:13:45;53.33;51.50;68.59;;
85141;Laerm;75501;52.586;13.284;2024-03-02T13:18:52;53.48;51.47;60.44;;
85141;Laerm;75501;52.586;13.284;2024-03-02T13:22:15;53.04;51.21;61.82;;
85141;Laerm;75501;52.586;13.284;2024-03-02T13:25:22;53.40;50.91;68.62;;
85141;Laerm;75501;52.586;13.284;2024-03-02T13:28:19;53.26;51.16;63.39;;
85141;Laerm;75501;52.586;13.284;2024-03-02T13:30:50;53.20;51.38;68.22;;
85141;Laerm;75501;52.586;13.284;2024-03-02T13:33:25;53.08;51.22;56.74;;
85141;Laerm;75501;52.586;13.284;2024-03-02T13:36:03;52.62;51.03;56.98;;
85141;Laerm;75501;52.586;13.284;2024-03-02T13:38:37;53.51;51.20;61.63;;
85141;Laerm;75501;52.586;13.284;2024-03-02T13:41:10;53.78;50.86;62.13;;
85141;Laerm;75501;52.586;13.284;2024-03-02T13:43:39;52.94;51.12;57.66;;
85141;Laerm;75501;52.586;13.284;2024-03-02T13:46:22;52.96;50.91;57.41;;
85141;Laerm;75501;52.586;13.284;2024-03-02T13:48:54;53.46;50.87;58.95;;
85141;Laerm;75501;52.586;13.284;2024-03-02T13:51:31;52.34;50.72;55.86;;
85141;Laerm;75501;52.586;13.284;2024-03-02T13:54:06;53.28;50.72;56.60;;
85141;Laerm;75501;52.586;13.284;2024-03-02T13:56:36;52.73;50.52;69.42;;
85141;Laerm;75501;52.586;13.284;2024-03-02T13:59:11;52.95;50.60;56.47;;
85141;Laerm;75501;52.586;13.284;2024-03-02T14:01:49;52.80;50.66;56.78;;
85141;Laerm;75501;52.586;13.284;2024-03-02T14:04:19;52.72;50.38;68.90;;
85141;Laerm;75501;52.586;13.284;2024-03-02T14:06:49;52.98;50.74;60.71;;
85141;Laerm;75501;52.586;13.284;2024-03-02T14:09:29;52.29;50.57;59.40;;
85141;Laerm;75501;52.586;13.284;2024-03-02T14:12:02;53.23;50.80;57.84;;
85141;Laerm;75501;52.586;13.284;2024-03-02T14:14:42;53.10;50.62;67.56;;
85141;Laerm;75501;52.586;13.284;2024-03-02T14:17:13;53.23;50.56;56.48;;
85141;Laerm;75501;52.586;13.284;2024-03-02T14:19:48;52.65;50.54;56.98;;
85141;Laerm;75501;52.586;13.284;2024-03-02T14:22:35;52.48;50.64;56.05;;
85141;Laerm;75501;52.586;13.284;2024-03-02T14:25:12;52.40;50.54;56.53;;
85141;Laerm;75501;52.586;13.284;2024-03-02T14:27:46;52.67;50.66;57.14;;
85141;Laerm;75501;52.586;13.284;2024-03-02T14:30:42;52.81;50.53;56.61;;
85141;Laerm;75501;52.586;13.284;2024-03-02T14:33:29;52.57;50.56;61.71;;
85141;Laerm;75501;52.586;13.284;2024-03-02T14:36:04;53.83;50.62;69.61;;
85141;Laerm;75501;52.586;13.284;2024-03-02T14:38:43;52.27;50.32;55.29;;
85141;Laerm;75501;52.586;13.284;2024-03-02T14:41:13;52.56;50.36;56.68;;
85141;Laerm;75501;52.586;13.284;2024-03-02T14:43:54;53.09;50.50;59.17;;
85141;Laerm;75501;52.586;13.284;2024-03-02T14:46:28;52.73;50.52;56.68;;
85141;Laerm;75501;52.586;13.284;2024-03-02T14:48:56;52.59;50.48;58.63;;
85141;Laerm;75501;52.586;13.284;2024-03-02T14:51:25;52.61;50.47;60.97;;
85141;Laerm;75501;52.586;13.284;2024-03-02T14:54:01;52.58;50.68;56.34;;
85141;Laerm;75501;52.586;13.284;2024-03-02T14:56:30;52.65;50.16;68.89;;
85141;Laerm;75501;52.586;13.284;2024-03-02T14:58:58;52.63;50.76;62.80;;
85141;Laerm;75501;52.586;13.284;2024-03-02T15:01:26;53.01;50.82;63.03;;
85141;Laerm;75501;52.586;13.284;2024-03-02T15:03:55;52.88;50.79;60.25;;
85141;Laerm;75501;52.586;13.284;2024-03-02T15:06:25;53.27;50.68;60.82;;